createdAt,value
2022-12-08T00:01:25.032Z,97687.28
2022-12-08T00:04:26.662Z,97682.88
2022-12-08T00:07:46.920Z,97676.75
2022-12-08T00:10:50.317Z,97681.19
2022-12-08T00:13:52.061Z,97682.88
2022-12-08T00:16:54.634Z,97682.00
2022-12-08T00:19:56.370Z,97671.50
2022-12-08T00:23:01.765Z,97672.41
2022-12-08T00:26:05.107Z,97671.50
2022-12-08T00:29:06.979Z,97665.38
2022-12-08T00:32:08.828Z,97656.56
2022-12-08T00:35:10.488Z,97655.66
2022-12-08T00:38:12.318Z,97662.75
2022-12-08T00:41:16.560Z,97665.38
2022-12-08T00:44:19.055Z,97663.59
2022-12-08T00:47:24.664Z,97646.91
2022-12-08T00:50:26.655Z,97652.16
2022-12-08T00:53:28.270Z,97660.06
2022-12-08T00:56:31.321Z,97653.91
2022-12-08T00:59:33.203Z,97657.44
2022-12-08T01:02:35.270Z,97655.72
2022-12-08T01:05:36.942Z,97648.72
2022-12-08T01:08:39.598Z,97655.75
2022-12-08T01:11:44.626Z,97653.22
2022-12-08T01:14:46.583Z,97651.44
2022-12-08T01:17:48.219Z,97650.59
2022-12-08T01:20:49.770Z,97662.03
2022-12-08T01:23:51.555Z,97648.88
2022-12-08T01:26:54.646Z,97656.81
2022-12-08T01:29:56.332Z,97653.31
2022-12-08T01:32:58.152Z,97653.28
2022-12-08T01:36:02.964Z,97655.94
2022-12-08T01:39:06.250Z,97649.00
2022-12-08T01:42:18.685Z,97652.56
2022-12-08T01:45:22.513Z,97641.16
2022-12-08T01:48:26.029Z,97652.59
2022-12-08T01:51:28.123Z,97645.53
2022-12-08T01:54:32.057Z,97640.31
2022-12-08T01:57:37.498Z,97642.03
2022-12-08T02:00:39.784Z,97641.97
2022-12-08T02:03:43.272Z,97637.53
2022-12-08T02:06:45.511Z,97643.63
2022-12-08T02:09:47.456Z,97634.88
2022-12-08T02:12:51.943Z,97631.38
2022-12-08T02:15:59.094Z,97633.09
2022-12-08T02:19:30.388Z,97618.19
2022-12-08T02:22:37.212Z,97621.66
2022-12-08T02:25:44.899Z,97614.63
2022-12-08T02:29:09.172Z,97609.38
2022-12-08T02:32:24.653Z,97617.25
2022-12-08T02:35:29.610Z,97612.00
2022-12-08T02:38:44.269Z,97599.72
2022-12-08T02:41:48.434Z,97589.19
2022-12-08T02:44:52.783Z,97588.38
2022-12-08T02:47:54.939Z,97586.63
2022-12-08T02:50:57.943Z,97582.22
2022-12-08T02:54:00.598Z,97576.09
2022-12-08T02:57:12.254Z,97580.44
2022-12-08T03:00:16.439Z,97580.44
2022-12-08T03:03:24.759Z,97563.81
2022-12-08T03:06:32.490Z,97564.66
2022-12-08T03:09:36.188Z,97564.66
2022-12-08T03:12:42.321Z,97558.53
2022-12-08T03:15:46.822Z,97559.38
2022-12-08T03:18:51.402Z,97561.09
2022-12-08T03:22:03.239Z,97551.44
2022-12-08T03:25:05.570Z,97543.59
2022-12-08T03:28:07.396Z,97548.00
2022-12-08T03:31:12.671Z,97540.06
2022-12-08T03:34:15.191Z,97542.69
2022-12-08T03:37:18.203Z,97544.38
2022-12-08T03:40:20.504Z,97543.50
2022-12-08T03:43:24.465Z,97528.63
2022-12-08T03:49:27.599Z,97530.41
2022-12-08T03:52:30.616Z,97514.69
2022-12-08T03:55:32.170Z,97520.81
2022-12-08T03:58:37.334Z,97522.56
2022-12-08T04:01:39.323Z,97518.19
2022-12-08T04:04:40.913Z,97513.84
2022-12-08T04:07:44.063Z,97505.09
2022-12-08T04:10:45.728Z,97498.97
2022-12-08T04:13:47.407Z,97507.66
2022-12-08T04:16:49.229Z,97498.91
2022-12-08T04:19:50.838Z,97498.78
2022-12-08T04:22:53.879Z,97491.75
2022-12-08T04:25:55.551Z,97492.72
2022-12-08T04:28:59.595Z,97495.41
2022-12-08T04:32:01.363Z,97490.97
2022-12-08T04:35:03.083Z,97488.31
2022-12-08T04:38:06.227Z,97480.38
2022-12-08T04:41:08.751Z,97483.00
2022-12-08T04:44:12.726Z,97487.38
2022-12-08T04:47:14.430Z,97468.94
2022-12-08T04:50:16.412Z,97473.25
2022-12-08T04:53:20.123Z,97468.91
2022-12-08T04:56:21.921Z,97473.31
2022-12-08T04:59:23.535Z,97475.94
2022-12-08T05:02:25.091Z,97468.94
2022-12-08T05:05:26.673Z,97468.94
2022-12-08T05:08:30.045Z,97465.47
2022-12-08T05:11:31.738Z,97461.88
2022-12-08T05:14:33.536Z,97457.41
2022-12-08T05:17:35.346Z,97459.13
2022-12-08T05:20:37.442Z,97454.78
2022-12-08T05:23:43.459Z,97464.41
2022-12-08T05:26:45.063Z,97459.13
2022-12-08T05:29:48.114Z,97453.00
2022-12-08T05:32:49.933Z,97452.09
2022-12-08T05:35:51.614Z,97446.91
2022-12-08T05:38:56.960Z,97439.91
2022-12-08T05:41:59.627Z,97445.19
2022-12-08T05:45:01.241Z,97438.16
2022-12-08T05:48:03.114Z,97439.09
2022-12-08T05:51:05.034Z,97430.34
2022-12-08T05:54:07.992Z,97428.63
2022-12-08T05:57:09.651Z,97434.75
2022-12-08T06:00:11.705Z,97428.69
2022-12-08T06:03:17.515Z,97419.09
2022-12-08T06:06:19.310Z,97427.03
2022-12-08T06:09:22.288Z,97422.69
2022-12-08T06:12:24.389Z,97425.47
2022-12-08T06:15:26.165Z,97416.94
2022-12-08T06:18:32.578Z,97417.97
2022-12-08T06:21:34.971Z,97416.38
2022-12-08T06:24:38.206Z,97421.06
2022-12-08T06:27:40.227Z,97415.97
2022-12-08T06:30:42.752Z,97412.53
2022-12-08T06:33:45.034Z,97413.41
2022-12-08T06:36:46.810Z,97414.31
2022-12-08T06:39:50.077Z,97424.88
2022-12-08T06:42:51.642Z,97413.56
2022-12-08T06:45:53.521Z,97414.47
2022-12-08T06:48:55.188Z,97417.09
2022-12-08T06:51:56.853Z,97414.50
2022-12-08T06:54:59.986Z,97411.06
2022-12-08T06:58:01.542Z,97410.22
2022-12-08T07:01:06.970Z,97416.44
2022-12-08T07:04:08.783Z,97406.88
2022-12-08T07:07:13.632Z,97414.75
2022-12-08T07:10:16.822Z,97424.38
2022-12-08T07:13:18.598Z,97426.03
2022-12-08T07:16:20.726Z,97428.63
2022-12-08T07:19:22.403Z,97425.13
2022-12-08T07:22:24.120Z,97426.84
2022-12-08T07:25:27.773Z,97423.34
2022-12-08T07:28:30.183Z,97427.69
2022-12-08T07:31:31.910Z,97428.56
2022-12-08T07:34:33.759Z,97430.22
2022-12-08T07:37:35.980Z,97429.28
2022-12-08T07:40:39.867Z,97423.16
2022-12-08T07:43:42.041Z,97425.72
2022-12-08T07:46:43.890Z,97427.44
2022-12-08T07:49:45.566Z,97419.56
2022-12-08T07:52:47.232Z,97423.03
2022-12-08T07:55:50.409Z,97428.28
2022-12-08T07:58:52.167Z,97425.69
2022-12-08T08:02:13.533Z,97423.03
2022-12-08T08:05:15.783Z,97427.44
2022-12-08T08:08:18.042Z,97423.91
2022-12-08T08:11:21.891Z,97421.22
2022-12-08T08:14:23.620Z,97428.16
2022-12-08T08:17:25.336Z,97426.34
2022-12-08T08:20:27.451Z,97424.59
2022-12-08T08:23:29.204Z,97421.06
2022-12-08T08:26:32.327Z,97423.75
2022-12-08T08:29:33.969Z,97423.81
2022-12-08T08:32:35.833Z,97428.25
2022-12-08T08:35:37.747Z,97427.34
2022-12-08T08:38:42.960Z,97436.91
2022-12-08T08:41:46.447Z,97434.31
2022-12-08T08:44:50.653Z,97435.16
2022-12-08T08:47:53.459Z,97430.88
2022-12-08T08:50:55.254Z,97437.84
2022-12-08T08:53:57.112Z,97436.13
2022-12-08T08:57:01.144Z,97442.31
2022-12-08T09:00:04.246Z,97437.84
2022-12-08T09:03:06.150Z,97439.53
2022-12-08T09:06:07.816Z,97439.53
2022-12-08T09:09:09.819Z,97435.22
2022-12-08T09:12:13.523Z,97440.44
2022-12-08T09:15:15.318Z,97446.66
2022-12-08T09:18:16.883Z,97446.72
2022-12-08T09:21:22.899Z,97450.38
2022-12-08T09:24:24.918Z,97454.69
2022-12-08T09:27:28.059Z,97452.16
2022-12-08T09:30:29.696Z,97449.47
2022-12-08T09:33:31.953Z,97453.78
2022-12-08T09:36:37.098Z,97453.78
2022-12-08T09:39:40.053Z,97452.94
2022-12-08T09:42:46.781Z,97443.31
2022-12-08T09:45:48.740Z,97445.84
2022-12-08T09:48:55.647Z,97449.31
2022-12-08T09:51:57.651Z,97436.19
2022-12-08T09:55:00.436Z,97437.00
2022-12-08T09:58:17.952Z,97442.25
2022-12-08T10:01:20.457Z,97437.75
2022-12-08T10:04:23.813Z,97429.78
2022-12-08T10:07:30.934Z,97434.06
2022-12-08T10:10:37.878Z,97442.75
2022-12-08T10:13:43.958Z,97436.53
2022-12-08T10:16:48.541Z,97440.84
2022-12-08T10:19:54.184Z,97438.25
2022-12-08T10:22:58.773Z,97433.09
2022-12-08T10:26:02.040Z,97425.91
2022-12-08T10:29:14.986Z,97431.97
2022-12-08T10:32:18.574Z,97438.00
2022-12-08T10:35:21.260Z,97428.44
2022-12-08T10:38:23.759Z,97434.66
2022-12-08T10:41:25.433Z,97427.56
2022-12-08T10:44:28.979Z,97426.66
2022-12-08T10:47:35.238Z,97421.34
2022-12-08T10:50:41.462Z,97425.69
2022-12-08T10:53:45.257Z,97421.25
2022-12-08T10:56:53.165Z,97426.56
2022-12-08T10:59:56.523Z,97422.91
2022-12-08T11:02:59.439Z,97418.41
2022-12-08T11:06:08.906Z,97423.75
2022-12-08T11:09:36.757Z,97424.41
2022-12-08T11:12:38.505Z,97427.03
2022-12-08T11:15:41.704Z,97429.56
2022-12-08T11:18:43.956Z,97427.94
2022-12-08T11:21:46.014Z,97425.09
2022-12-08T11:24:56.441Z,97411.13
2022-12-08T11:27:59.083Z,97420.81
2022-12-08T11:31:05.237Z,97422.53
2022-12-08T11:34:09.980Z,97420.69
2022-12-08T11:37:16.136Z,97415.53
2022-12-08T11:40:21.215Z,97418.13
2022-12-08T11:43:26.784Z,97410.19
2022-12-08T11:46:34.824Z,97409.25
2022-12-08T11:49:38.085Z,97403.03
2022-12-08T11:52:45.166Z,97406.34
2022-12-08T11:55:50.233Z,97411.78
2022-12-08T11:58:54.834Z,97401.25
2022-12-08T12:01:59.403Z,97404.41
2022-12-08T12:05:02.594Z,97406.19
2022-12-08T12:08:09.225Z,97407.97
2022-12-08T12:11:35.529Z,97410.38
2022-12-08T12:14:50.741Z,97411.13
2022-12-08T12:17:57.265Z,97401.44
2022-12-08T12:21:02.139Z,97411.03
2022-12-08T12:24:05.860Z,97404.06
2022-12-08T12:27:20.303Z,97407.50
2022-12-08T12:30:26.503Z,97408.19
2022-12-08T12:33:30.279Z,97398.69
2022-12-08T12:36:32.889Z,97402.06
2022-12-08T12:39:45.946Z,97402.22
2022-12-08T12:42:51.556Z,97398.00
2022-12-08T12:46:14.915Z,97402.22
2022-12-08T12:49:35.369Z,97404.94
2022-12-08T12:52:42.678Z,97408.47
2022-12-08T12:55:54.612Z,97399.84
2022-12-08T12:58:56.192Z,97409.50
2022-12-08T13:01:58.283Z,97404.13
2022-12-08T13:05:02.512Z,97402.41
2022-12-08T13:08:08.058Z,97404.41
2022-12-08T13:11:10.434Z,97408.81
2022-12-08T13:14:24.219Z,97409.66
2022-12-08T13:17:27.507Z,97404.41
2022-12-08T13:20:29.508Z,97405.22
2022-12-08T13:23:46.277Z,97411.09
2022-12-08T13:26:48.947Z,97397.94
2022-12-08T13:30:17.018Z,97405.97
2022-12-08T13:33:22.427Z,97400.84
2022-12-08T13:36:25.882Z,97402.56
2022-12-08T13:39:32.448Z,97404.34
2022-12-08T13:42:36.662Z,97399.09
2022-12-08T13:46:31.794Z,97405.09
2022-12-08T13:56:59.698Z,97404.41
2022-12-08T13:59:28.296Z,97408.06
2022-12-08T14:02:33.174Z,97402.81
2022-12-08T14:06:10.381Z,97409.91
2022-12-08T14:09:08.735Z,97410.81
2022-12-08T14:12:18.090Z,97418.69
2022-12-08T14:15:22.700Z,97406.41
2022-12-08T14:18:26.110Z,97414.34
2022-12-08T14:21:32.798Z,97410.91
2022-12-08T14:24:37.819Z,97413.53
2022-12-08T14:27:39.635Z,97411.78
2022-12-08T14:30:42.887Z,97414.41
2022-12-08T14:33:44.825Z,97414.41
2022-12-08T14:36:46.558Z,97417.16
2022-12-08T14:39:48.885Z,97417.25
2022-12-08T14:42:51.667Z,97419.03
2022-12-08T14:45:57.364Z,97419.13
2022-12-08T14:48:59.821Z,97423.59
2022-12-08T14:52:02.348Z,97419.34
2022-12-08T14:55:07.627Z,97422.91
2022-12-08T14:58:16.809Z,97421.19
2022-12-08T15:01:22.556Z,97430.00
2022-12-08T15:04:25.774Z,97435.31
2022-12-08T15:07:28.635Z,97420.50
2022-12-08T15:10:32.111Z,97421.44
2022-12-08T15:13:33.863Z,97421.50
2022-12-08T15:16:40.330Z,97421.56
2022-12-08T15:19:42.291Z,97425.06
2022-12-08T15:22:44.026Z,97428.59
2022-12-08T15:25:46.207Z,97432.13
2022-12-08T15:28:48.021Z,97430.41
2022-12-08T15:31:52.478Z,97435.78
2022-12-08T15:34:54.556Z,97433.16
2022-12-08T15:37:56.544Z,97443.66
2022-12-08T15:41:01.158Z,97438.34
2022-12-08T15:44:03.104Z,97443.72
2022-12-08T15:47:06.553Z,97444.63
2022-12-08T15:50:14.183Z,97443.81
2022-12-08T15:53:16.131Z,97451.72
2022-12-08T15:56:27.374Z,97448.16
2022-12-08T15:59:31.200Z,97444.72
2022-12-08T16:02:56.369Z,97457.06
2022-12-08T16:06:39.075Z,97453.53
2022-12-08T16:09:20.784Z,97455.34
2022-12-08T16:16:05.870Z,97462.31
2022-12-08T16:19:13.526Z,97465.00
2022-12-08T16:22:52.449Z,97466.66
2022-12-08T16:26:15.559Z,97471.81
2022-12-08T16:29:00.999Z,97463.94
2022-12-08T16:32:02.925Z,97459.53
2022-12-08T16:35:07.004Z,97461.28
2022-12-08T16:38:11.984Z,97463.94
2022-12-08T16:41:37.954Z,97467.44
2022-12-08T16:44:41.232Z,97473.66
2022-12-08T16:47:43.799Z,97480.75
2022-12-08T16:50:46.930Z,97472.13
2022-12-08T16:53:48.450Z,97469.56
2022-12-08T16:56:50.080Z,97472.28
2022-12-08T16:59:51.666Z,97467.16
2022-12-08T17:02:53.962Z,97476.81
2022-12-08T17:05:56.944Z,97473.38
2022-12-08T17:08:59.499Z,97466.31
2022-12-08T17:12:03.933Z,97467.94
2022-12-08T17:15:07.924Z,97473.09
2022-12-08T17:18:09.819Z,97468.69
2022-12-08T17:21:13.956Z,97474.09
2022-12-08T17:24:20.231Z,97476.72
2022-12-08T17:27:23.477Z,97472.41
2022-12-08T17:30:25.150Z,97479.44
2022-12-08T17:33:27.045Z,97470.75
2022-12-08T17:36:30.497Z,97472.41
2022-12-08T17:39:32.153Z,97464.53
2022-12-08T17:42:34.133Z,97475.06
2022-12-08T17:45:39.812Z,97475.25
2022-12-08T17:48:41.426Z,97472.63
2022-12-08T17:51:45.348Z,97473.47
2022-12-08T17:54:46.949Z,97477.81
2022-12-08T17:57:48.508Z,97487.38
2022-12-08T18:00:50.965Z,97490.91
2022-12-08T18:03:52.578Z,97483.00
2022-12-08T18:06:58.252Z,97485.56
2022-12-08T18:09:59.909Z,97488.13
2022-12-08T18:13:01.963Z,97484.59
2022-12-08T18:16:03.677Z,97480.28
2022-12-08T18:19:05.696Z,97482.06
2022-12-08T18:22:09.257Z,97483.81
2022-12-08T18:25:12.161Z,97483.00
2022-12-08T18:28:13.905Z,97483.09
2022-12-08T18:31:17.609Z,97490.97
2022-12-08T18:34:19.672Z,97487.53
2022-12-08T18:37:22.897Z,97487.44
2022-12-08T18:40:24.605Z,97487.44
2022-12-08T18:43:26.472Z,97486.72
2022-12-08T18:46:28.256Z,97489.34
2022-12-08T18:49:33.200Z,97478.84
2022-12-08T18:52:36.207Z,97476.22
2022-12-08T18:55:37.879Z,97474.63
2022-12-08T18:58:39.701Z,97471.28
2022-12-08T19:01:42.053Z,97472.28
2022-12-08T19:04:46.252Z,97475.88
2022-12-08T19:07:49.622Z,97477.69
2022-12-08T19:10:51.313Z,97482.84
2022-12-08T19:13:53.692Z,97486.31
2022-12-08T19:16:55.641Z,97484.47
2022-12-08T19:19:57.450Z,97495.78
2022-12-08T19:23:00.475Z,97495.78
2022-12-08T19:26:02.425Z,97495.06
2022-12-08T19:29:04.184Z,97495.88
2022-12-08T19:32:05.954Z,97496.75
2022-12-08T19:35:08.229Z,97506.44
2022-12-08T19:38:11.244Z,97504.75
2022-12-08T19:41:31.662Z,97491.81
2022-12-08T19:44:52.034Z,97498.88
2022-12-08T19:47:53.612Z,97496.28
2022-12-08T19:50:55.472Z,97496.34
2022-12-08T19:53:58.570Z,97498.94
2022-12-08T19:57:00.287Z,97497.06
2022-12-08T20:00:01.906Z,97499.50
2022-12-08T20:03:04.263Z,97490.88
2022-12-08T20:06:06.151Z,97500.69
2022-12-08T20:09:10.483Z,97490.31
2022-12-08T20:12:12.270Z,97496.44
2022-12-08T20:15:15.151Z,97504.34
2022-12-08T20:18:17.028Z,97501.00
2022-12-08T20:21:19.336Z,97505.56
2022-12-08T20:24:22.575Z,97509.25
2022-12-08T20:27:24.511Z,97506.78
2022-12-08T20:30:26.499Z,97505.94
2022-12-08T20:33:28.894Z,97507.84
2022-12-08T20:36:31.399Z,97505.19
2022-12-08T20:39:34.394Z,97498.06
2022-12-08T20:42:36.043Z,97502.56
2022-12-08T20:45:37.770Z,97511.47
2022-12-08T20:48:39.711Z,97509.78
2022-12-08T20:51:42.128Z,97515.13
2022-12-08T20:54:45.320Z,97515.91
2022-12-08T20:57:47.100Z,97519.50
2022-12-08T21:00:49.231Z,97516.06
2022-12-08T21:03:51.644Z,97517.84
2022-12-08T21:06:53.635Z,97520.41
2022-12-08T21:09:56.924Z,97519.44
2022-12-08T21:12:58.927Z,97524.69
2022-12-08T21:16:01.444Z,97517.78
2022-12-08T21:19:05.787Z,97515.22
2022-12-08T21:22:07.649Z,97520.47
2022-12-08T21:25:10.932Z,97523.97
2022-12-08T21:28:12.990Z,97520.41
2022-12-08T21:31:16.486Z,97525.50
2022-12-08T21:34:18.568Z,97530.66
2022-12-08T21:37:20.407Z,97527.09
2022-12-08T21:40:23.576Z,97514.06
2022-12-08T21:43:25.483Z,97514.13
2022-12-08T21:46:27.478Z,97509.00
2022-12-08T21:49:30.154Z,97511.81
2022-12-08T21:52:31.921Z,97518.94
2022-12-08T21:55:35.331Z,97515.41
2022-12-08T21:58:37.327Z,97516.34
2022-12-08T22:01:39.512Z,97515.63
2022-12-08T22:04:41.332Z,97518.22
2022-12-08T22:07:43.764Z,97525.25
2022-12-08T22:10:48.927Z,97528.69
2022-12-08T22:13:50.809Z,97526.03
2022-12-08T22:16:52.969Z,97521.72
2022-12-08T22:19:54.826Z,97527.03
2022-12-08T22:22:56.745Z,97530.41
2022-12-08T22:26:00.891Z,97520.69
2022-12-08T22:29:02.892Z,97511.06
2022-12-08T22:32:05.152Z,97508.44
2022-12-08T22:35:07.376Z,97508.38
2022-12-08T22:38:09.145Z,97506.56
2022-12-08T22:41:12.464Z,97507.53
2022-12-08T22:44:15.146Z,97508.44
2022-12-08T22:47:20.015Z,97509.31
2022-12-08T22:50:21.955Z,97502.25
2022-12-08T22:53:23.738Z,97509.31
2022-12-08T22:56:26.778Z,97507.63
2022-12-08T22:59:28.807Z,97505.97
2022-12-08T23:02:30.506Z,97503.31
2022-12-08T23:05:33.482Z,97503.19
2022-12-08T23:08:35.890Z,97490.81
2022-12-08T23:11:39.188Z,97501.97
2022-12-08T23:14:41.047Z,97499.38
2022-12-08T23:17:42.919Z,97504.50
2022-12-08T23:20:44.681Z,97497.53
2022-12-08T23:23:47.282Z,97495.91
2022-12-08T23:26:50.254Z,97497.66
2022-12-08T23:29:51.892Z,97505.41
2022-12-08T23:32:54.606Z,97504.25
2022-12-08T23:35:58.608Z,97500.53
2022-12-08T23:39:00.754Z,97499.78
2022-12-08T23:42:04.862Z,97485.91
2022-12-08T23:45:08.939Z,97498.91
2022-12-08T23:48:10.925Z,97497.16
2022-12-08T23:51:12.786Z,97491.03
2022-12-08T23:54:15.033Z,97494.41
2022-12-08T23:57:18.169Z,97487.50
